Time;durP1;ratioP1;P1;durP2;ratioP2;P2;SDS_P1;SDS_P2;PMS_P1;PMS_P2;Temp;Humidity;BMP_temperature;BMP_pressure;BME280_temperature;BME280_humidity;BME280_pressure;Samples;Min_cycle;Max_cycle;Signal;HPM_P1;HPM_P2
2021/12/19 00:10:23;;;;;;;31.58;10.38;;;;;;;5.69;92.52;102161.16;5006857;28;20081;-81
2021/12/19 00:12:48;;;;;;;31.20;10.63;;;;;;;5.72;92.42;102157.38;5005410;28;20031;-80
2021/12/19 00:15:14;;;;;;;32.25;10.10;;;;;;;5.71;92.20;102158.34;4997979;28;20374;-79
2021/12/19 00:17:39;;;;;;;26.15;9.77;;;;;;;5.84;91.54;102162.50;4998196;28;20113;-79
2021/12/19 00:20:05;;;;;;;21.33;9.23;;;;;;;5.77;92.13;102166.69;4997155;28;20058;-79
2021/12/19 00:22:32;;;;;;;;;;;;;;;5.92;92.47;102160.03;5001879;28;20065;-80
2021/12/19 00:24:57;;;;;;;27.17;8.83;;;;;;;5.99;92.20;102148.81;5001138;28;20379;-78
2021/12/19 00:27:23;;;;;;;23.65;9.73;;;;;;;5.86;91.36;102149.84;5001947;28;20026;-79
2021/12/19 00:29:48;;;;;;;20.60;7.97;;;;;;;5.76;91.97;102150.75;4984135;28;20511;-79
2021/12/19 00:32:13;;;;;;;18.67;8.27;;;;;;;5.77;92.45;102153.31;4999824;28;20261;-79
2021/12/19 00:34:39;;;;;;;24.87;8.20;;;;;;;5.75;92.13;102149.91;5002131;28;20266;-78
2021/12/19 00:37:04;;;;;;;16.43;6.47;;;;;;;5.69;92.25;102147.78;5001346;28;20022;-79
2021/12/19 00:39:30;;;;;;;21.07;8.20;;;;;;;5.70;91.67;102154.81;5002536;28;20270;-80
2021/12/19 00:41:55;;;;;;;21.17;8.40;;;;;;;5.68;92.87;102143.41;5001063;28;20026;-79
2021/12/19 00:44:25;;;;;;;23.70;9.32;;;;;;;5.67;91.84;102139.03;5000595;28;20472;-80
2021/12/19 00:46:53;;;;;;;23.42;7.57;;;;;;;5.68;93.17;102137.22;5001255;28;20042;-80
2021/12/19 00:49:22;;;;;;;23.00;9.32;;;;;;;5.65;92.81;102145.50;5001365;28;20469;-79
2021/12/19 00:51:48;;;;;;;28.08;8.45;;;;;;;5.60;92.27;102140.53;5001480;28;20065;-80
2021/12/19 00:54:14;;;;;;;22.23;8.48;;;;;;;5.59;92.81;102136.16;5001903;28;20034;-80
2021/12/19 00:56:43;;;;;;;25.95;9.63;;;;;;;5.54;92.55;102128.53;5001005;28;20052;-80
2021/12/19 00:59:09;;;;;;;23.48;8.60;;;;;;;5.53;93.18;102128.69;5001528;28;20034;-80
2021/12/19 01:01:36;;;;;;;25.23;8.18;;;;;;;5.68;93.17;102122.00;4948917;28;20069;-77
2021/12/19 01:04:05;;;;;;;24.88;8.38;;;;;;;5.57;92.68;102133.59;4998158;28;20038;-77
2021/12/19 01:06:31;;;;;;;24.35;8.77;;;;;;;5.58;92.93;102123.75;4997724;28;20069;-79
2021/12/19 01:08:56;;;;;;;22.35;8.07;;;;;;;5.62;92.91;102124.34;5000360;28;20361;-80
2021/12/19 01:11:22;;;;;;;21.45;7.38;;;;;;;5.63;93.07;102108.19;5000516;28;20493;-78
2021/12/19 01:13:47;;;;;;;25.70;8.00;;;;;;;5.63;93.01;102112.69;4999111;28;20150;-78
2021/12/19 01:16:14;;;;;;;19.58;7.28;;;;;;;5.58;93.17;102103.22;5001546;28;20035;-80
2021/12/19 01:18:39;;;;;;;18.33;7.20;;;;;;;5.69;92.94;102106.81;4983992;28;20046;-80
2021/12/19 01:21:05;;;;;;;21.20;7.13;;;;;;;5.73;92.57;102111.75;4999560;28;20057;-79
2021/12/19 01:23:31;;;;;;;;;;;;;;;5.84;93.20;102106.34;5001322;28;20293;-80
2021/12/19 01:25:56;;;;;;;19.33;5.57;;;;;;;5.73;92.27;102105.56;4999512;28;19921;-78
2021/12/19 01:28:21;;;;;;;12.68;4.72;;;;;;;5.68;91.03;102103.28;5002282;28;20026;-79
2021/12/19 01:30:47;;;;;;;13.57;5.30;;;;;;;5.66;91.41;102096.38;4987270;28;20089;-78
2021/12/19 01:33:12;;;;;;;18.90;5.03;;;;;;;5.81;91.03;102103.91;5003256;28;20027;-79
2021/12/19 01:35:38;;;;;;;17.35;5.35;;;;;;;5.95;91.57;102104.56;5003899;28;20085;-79
2021/12/19 01:38:03;;;;;;;15.67;5.07;;;;;;;5.88;91.21;102102.44;5004530;28;20041;-79
2021/12/19 01:40:29;;;;;;;15.50;5.10;;;;;;;5.79;91.12;102116.56;5003525;28;20026;-79
2021/12/19 01:42:57;;;;;;;16.00;6.10;;;;;;;5.71;92.26;102108.38;5001804;28;20493;-79
2021/12/19 01:45:32;;;;;;;20.38;6.18;;;;;;;5.61;91.99;102110.13;5001597;28;20034;-79
2021/12/19 01:47:59;;;;;;;20.30;6.20;;;;;;;5.60;92.27;102097.75;5002526;28;20034;-80
2021/12/19 01:50:25;;;;;;;20.48;6.38;;;;;;;5.57;92.47;102104.19;5002534;28;20088;-79
2021/12/19 01:52:51;;;;;;;19.80;6.70;;;;;;;5.62;92.32;102102.97;5000703;28;20038;-80
2021/12/19 01:55:17;;;;;;;25.52;6.68;;;;;;;5.81;92.50;102103.91;5003488;28;20050;-80
2021/12/19 01:57:43;;;;;;;23.20;6.75;;;;;;;5.70;92.39;102103.16;4985069;28;20539;-79
2021/12/19 02:00:19;;;;;;;21.75;7.32;;;;;;;5.74;91.93;102093.88;5001921;28;20169;-81
2021/12/19 02:02:44;;;;;;;26.23;8.25;;;;;;;5.76;92.48;102100.78;5005666;28;20046;-81
2021/12/19 02:05:09;;;;;;;29.42;9.23;;;;;;;5.71;91.78;102096.84;5007961;28;20031;-80
2021/12/19 02:07:35;;;;;;;32.60;9.87;;;;;;;5.65;92.30;102092.00;4987906;28;20531;-79
2021/12/19 02:10:00;;;;;;;29.27;10.10;;;;;;;5.56;92.68;102083.78;5000787;28;20076;-80
2021/12/19 02:12:25;;;;;;;28.67;8.10;;;;;;;5.48;92.51;102088.97;4999634;28;20277;-79
2021/12/19 02:14:51;;;;;;;24.30;6.67;;;;;;;5.40;92.99;102082.56;5000757;28;20330;-81
2021/12/19 02:17:17;;;;;;;20.40;6.87;;;;;;;5.37;92.83;102085.50;5000612;28;20258;-83
2021/12/19 02:19:42;;;;;;;18.10;5.10;;;;;;;5.36;92.58;102089.16;4989994;28;20918;-82
2021/12/19 02:22:07;;;;;;;15.00;6.17;;;;;;;5.37;92.53;102090.84;5003183;28;20041;-80
2021/12/19 02:24:34;;;;;;;16.70;5.18;;;;;;;5.34;92.61;102080.41;5002645;28;20269;-81
2021/12/19 02:27:00;;;;;;;14.50;5.75;;;;;;;5.29;92.38;102086.16;4985794;28;20041;-82
2021/12/19 02:29:25;;;;;;;11.05;4.15;;;;;;;5.29;92.52;102069.25;5003444;28;20057;-80
2021/12/19 02:31:50;;;;;;;15.90;4.88;;;;;;;5.29;92.94;102069.25;5003072;28;20041;-81
2021/12/19 02:34:20;;;;;;;19.47;5.67;;;;;;;5.31;93.26;102075.34;5005174;28;20085;-81
2021/12/19 02:50:06;;;;;;;14.50;5.05;;;;;;;5.32;93.04;102069.00;5008039;28;20113;-80
2021/12/19 02:52:32;;;;;;;20.63;5.47;;;;;;;5.35;92.72;102058.91;5000721;28;20038;-80
2021/12/19 02:54:57;;;;;;;24.35;6.18;;;;;;;5.40;92.33;102055.81;5010184;28;20089;-83
2021/12/19 02:57:23;;;;;;;18.98;6.40;;;;;;;5.38;92.72;102055.94;5006401;28;20030;-80
2021/12/19 02:59:48;;;;;;;18.55;6.78;;;;;;;5.39;93.30;102056.78;4966004;28;23850;-83
2021/12/19 03:02:15;;;;;;;19.25;6.15;;;;;;;5.39;92.93;102049.63;4994601;28;20095;-80
2021/12/19 03:04:58;;;;;;;22.48;7.32;;;;;;;5.36;93.42;102047.25;5002041;28;20038;-80
2021/12/19 03:07:25;;;;;;;20.27;7.22;;;;;;;5.31;93.75;102044.09;5001610;28;20033;-80
2021/12/19 03:18:07;;;;;;;18.63;7.22;;;;;;;5.34;93.63;102041.19;4997478;28;19920;-79
2021/12/19 03:20:34;;;;;;;21.27;7.28;;;;;;;5.34;93.55;102037.66;4997574;28;20060;-79
2021/12/19 03:23:01;;;;;;;25.55;6.72;;;;;;;5.34;93.96;102041.19;4999412;28;20041;-80
2021/12/19 03:25:28;;;;;;;19.75;5.93;;;;;;;5.35;93.43;102026.84;4984230;28;20049;-79
2021/12/19 03:27:54;;;;;;;17.05;6.07;;;;;;;5.36;92.96;102033.03;4999135;28;20026;-80
2021/12/19 03:30:19;;;;;;;14.50;4.78;;;;;;;5.31;93.29;102029.91;4998116;28;20041;-80
2021/12/19 03:32:45;;;;;;;20.90;6.00;;;;;;;5.34;93.33;102025.13;4998535;28;20038;-80
2021/12/19 03:35:10;;;;;;;15.37;5.17;;;;;;;5.34;93.53;102027.81;4998015;28;20104;-81
2021/12/19 03:37:36;;;;;;;16.80;5.95;;;;;;;5.35;93.36;102026.00;4997695;28;20306;-83
2021/12/19 03:40:11;;;;;;;13.77;5.05;;;;;;;5.34;93.63;102030.50;4979836;28;20042;-80
2021/12/19 03:42:48;;;;;;;18.60;4.80;;;;;;;5.35;93.40;102015.28;4999408;28;20026;-80
2021/12/19 03:45:17;;;;;;;17.13;6.20;;;;;;;5.35;93.36;102013.47;4998211;28;20106;-79
2021/12/19 03:47:44;;;;;;;15.82;5.40;;;;;;;5.37;94.03;102006.16;4999230;28;20041;-80
2021/12/19 03:50:12;;;;;;;16.35;6.07;;;;;;;5.36;94.28;101998.28;4998394;28;20041;-80
2021/12/19 03:52:37;;;;;;;17.30;6.70;;;;;;;5.32;93.79;101989.69;5001343;28;20076;-81
2021/12/19 03:55:05;;;;;;;17.77;5.38;;;;;;;5.36;93.35;101991.13;5004836;28;20117;-82
2021/12/19 03:57:30;;;;;;;13.70;5.32;;;;;;;5.37;93.66;101990.13;5005251;28;20228;-81
2021/12/19 03:59:56;;;;;;;22.38;6.13;;;;;;;5.41;93.79;101990.69;4998559;28;20042;-80
2021/12/19 04:02:26;;;;;;;21.40;6.07;;;;;;;5.42;94.14;101974.53;4999170;28;20038;-80
2021/12/19 04:04:54;;;;;;;17.63;5.47;;;;;;;5.70;93.67;101978.31;5005505;28;20026;-82
2021/12/19 04:07:20;;;;;;;17.90;6.10;;;;;;;5.56;93.14;101975.97;4998828;28;20023;-80
2021/12/19 04:09:45;;;;;;;18.35;5.72;;;;;;;5.50;93.44;101964.03;4998526;28;20445;-80
2021/12/19 04:12:11;;;;;;;24.42;6.60;;;;;;;5.45;93.69;101960.88;4998809;28;20046;-80
2021/12/19 04:14:36;;;;;;;19.55;6.40;;;;;;;5.48;93.53;101962.47;4998230;28;20038;-80
2021/12/19 04:17:02;;;;;;;27.92;8.25;;;;;;;5.45;93.72;101963.56;4998989;28;20046;-81
2021/12/19 04:19:29;;;;;;;29.70;6.82;;;;;;;5.49;93.23;101958.81;4999009;28;20109;-80
2021/12/19 04:21:55;;;;;;;22.95;6.63;;;;;;;5.44;94.21;101959.19;4981642;28;20030;-80
2021/12/19 04:24:20;;;;;;;24.63;7.45;;;;;;;5.49;93.63;101953.47;5001335;28;20078;-82
2021/12/19 04:26:45;;;;;;;25.77;7.20;;;;;;;5.45;93.35;101958.22;5005216;28;20043;-82
2021/12/19 04:29:11;;;;;;;23.80;7.57;;;;;;;5.58;93.11;101947.28;5005696;28;20030;-81
2021/12/19 04:31:37;;;;;;;32.17;8.85;;;;;;;5.50;93.61;101952.47;5007095;28;20030;-81
2021/12/19 04:34:04;;;;;;;23.73;8.02;;;;;;;5.59;93.30;101946.31;5005480;28;20031;-80
2021/12/19 04:36:34;;;;;;;22.30;7.97;;;;;;;5.64;93.61;101940.56;5004600;28;20465;-80
2021/12/19 04:51:00;;;;;;;16.80;4.95;;;;;;;5.01;93.53;101948.72;4988178;28;20046;-82
2021/12/19 05:00:22;;;;;;;11.63;3.67;;;;;;;4.90;93.58;101946.09;4959017;28;20063;-80
2021/12/19 05:02:56;;;;;;;10.18;3.78;;;;;;;4.89;92.86;101952.44;4997494;28;20026;-81
2021/12/19 05:05:33;;;;;;;10.02;3.60;;;;;;;4.91;92.63;101942.47;4998182;28;20038;-80
2021/12/19 05:16:13;;;;;;;13.88;3.33;;;;;;;4.76;92.26;101941.09;5001180;28;20132;-79
2021/12/19 05:18:40;;;;;;;11.45;3.35;;;;;;;4.77;92.22;101932.97;5002212;28;20105;-80
2021/12/19 05:21:15;;;;;;;11.85;2.70;;;;;;;4.75;91.92;101937.59;4992014;28;20050;-79
2021/12/19 05:26:14;;;;;;;11.55;3.28;;;;;;;4.70;90.58;101929.09;5006732;28;20462;-81
2021/12/19 05:28:39;;;;;;;8.55;2.55;;;;;;;4.67;90.68;101939.19;5003503;28;20034;-80
2021/12/19 05:31:04;;;;;;;7.57;2.70;;;;;;;4.67;90.59;101940.03;5000191;28;20437;-80
2021/12/19 05:33:30;;;;;;;8.17;2.80;;;;;;;4.71;90.14;101938.81;5001113;28;20038;-80
2021/12/19 05:44:15;;;;;;;7.47;1.88;;;;;;;4.96;89.75;101937.59;5000840;28;20041;-80
2021/12/19 05:46:41;;;;;;;9.38;1.30;;;;;;;4.85;89.75;101932.28;4981844;28;20065;-80
2021/12/19 05:49:07;;;;;;;5.43;1.25;;;;;;;4.81;90.24;101936.22;4999245;28;20381;-80
2021/12/19 05:51:34;;;;;;;6.60;2.20;;;;;;;4.75;90.58;101940.25;4980571;28;20034;-80
2021/12/19 05:53:59;;;;;;;10.52;1.58;;;;;;;4.68;90.85;101930.22;4996858;28;20397;-80
2021/12/19 05:56:25;;;;;;;4.72;1.65;;;;;;;4.62;91.48;101922.75;4997463;28;20030;-81
2021/12/19 05:58:50;;;;;;;8.10;1.90;;;;;;;4.63;91.29;101922.63;4999482;28;20065;-81
2021/12/19 06:01:16;;;;;;;6.35;2.63;;;;;;;4.64;91.70;101918.97;5006523;28;20034;-80
2021/12/19 06:03:41;;;;;;;6.68;2.22;;;;;;;4.65;91.90;101927.81;5008680;28;20031;-81
2021/12/19 06:06:07;;;;;;;5.85;1.73;;;;;;;4.59;92.04;101921.16;5005571;28;20046;-80
2021/12/19 06:08:32;;;;;;;6.47;2.10;;;;;;;4.58;92.26;101921.28;4992685;28;20027;-80
2021/12/19 06:10:58;;;;;;;6.80;1.88;;;;;;;4.58;91.93;101915.97;5011564;28;20065;-80
2021/12/19 06:13:24;;;;;;;7.95;1.67;;;;;;;4.58;91.63;101919.47;5014998;28;20058;-83
2021/12/19 06:15:52;;;;;;;9.32;2.88;;;;;;;4.64;92.56;101915.44;4997858;28;20090;-83
2021/12/19 06:18:17;;;;;;;7.15;1.73;;;;;;;4.65;92.33;101923.34;5005510;28;20034;-80
2021/12/19 06:20:43;;;;;;;10.90;2.63;;;;;;;4.67;92.32;101918.69;5001348;28;20050;-83
2021/12/19 06:23:09;;;;;;;9.35;3.03;;;;;;;4.68;92.17;101909.69;4999681;28;20066;-79
2021/12/19 06:25:34;;;;;;;6.65;1.98;;;;;;;4.71;91.87;101911.25;4981984;28;20172;-79
2021/12/19 06:28:00;;;;;;;9.32;2.58;;;;;;;4.77;92.45;101908.94;5000760;28;20072;-80
2021/12/19 06:30:27;;;;;;;9.35;2.55;;;;;;;4.67;92.36;101909.81;5000012;28;20524;-81
2021/12/19 06:32:53;;;;;;;12.60;3.80;;;;;;;4.66;92.73;101906.31;5000991;28;20034;-80
2021/12/19 06:35:19;;;;;;;13.00;3.28;;;;;;;4.72;92.17;101908.47;5000951;28;20061;-81
2021/12/19 06:37:46;;;;;;;8.88;2.00;;;;;;;4.68;92.66;101901.69;5000519;28;20037;-80
2021/12/19 06:40:14;;;;;;;7.65;2.70;;;;;;;4.70;92.40;101899.75;5000231;28;20038;-81
2021/12/19 06:42:39;;;;;;;8.38;2.88;;;;;;;4.75;91.73;101904.69;4999298;28;20027;-81
2021/12/19 06:45:05;;;;;;;11.07;2.80;;;;;;;4.81;91.34;101902.34;4983656;28;20033;-80
2021/12/19 06:47:31;;;;;;;11.23;2.75;;;;;;;4.74;91.45;101887.81;5000716;28;20497;-79
2021/12/19 06:49:57;;;;;;;17.95;3.65;;;;;;;4.76;92.38;101880.53;5000501;28;20058;-81
2021/12/19 06:52:26;;;;;;;9.95;3.00;;;;;;;4.77;91.73;101878.72;5001600;28;20045;-80
2021/12/19 06:54:51;;;;;;;10.65;2.85;;;;;;;4.81;91.84;101875.66;4983161;28;20045;-79
2021/12/19 06:57:16;;;;;;;10.73;3.50;;;;;;;5.02;92.00;101878.25;5000469;28;20034;-80
2021/12/19 06:59:42;;;;;;;10.48;3.10;;;;;;;4.91;91.76;101880.19;4962952;28;20042;-80
2021/12/19 07:02:13;;;;;;;10.27;2.17;;;;;;;4.89;92.14;101869.63;4994703;28;20039;-80
2021/12/19 07:04:38;;;;;;;9.80;3.20;;;;;;;4.93;91.03;101865.72;4999608;28;20285;-83
2021/12/19 07:07:04;;;;;;;10.75;3.13;;;;;;;4.91;92.14;101870.34;4999531;28;20042;-79
2021/12/19 07:09:29;;;;;;;10.20;2.60;;;;;;;4.91;91.84;101866.81;4999428;28;20034;-79
2021/12/19 07:11:54;;;;;;;13.27;3.37;;;;;;;4.91;92.39;101875.69;4999798;28;20344;-80
2021/12/19 07:14:20;;;;;;;11.27;3.23;;;;;;;4.97;92.11;101868.97;5000289;28;20102;-80
2021/12/19 07:16:45;;;;;;;13.13;2.93;;;;;;;4.99;92.14;101881.22;5002098;28;20265;-79
2021/12/19 07:19:11;;;;;;;11.50;3.17;;;;;;;4.98;92.15;101874.19;4999380;28;20754;-80
2021/12/19 07:21:36;;;;;;;;;;;;;;;5.12;91.21;101862.28;5000316;28;20053;-80
2021/12/19 07:24:02;;;;;;;15.88;4.07;;;;;;;5.02;91.82;101864.06;5001036;28;19976;-80
2021/12/19 07:26:27;;;;;;;14.23;4.88;;;;;;;5.04;91.58;101862.94;5000335;28;20034;-78
2021/12/19 07:28:53;;;;;;;13.13;3.93;;;;;;;5.01;91.77;101870.41;4996266;28;20035;-78
2021/12/19 07:31:19;;;;;;;12.02;4.50;;;;;;;5.08;92.13;101866.19;4996319;28;20034;-78
2021/12/19 07:33:45;;;;;;;12.70;3.92;;;;;;;5.35;92.37;101863.78;4978091;28;20038;-78
2021/12/19 07:36:13;;;;;;;14.73;4.65;;;;;;;5.25;91.18;101865.56;4994002;28;20034;-79
2021/12/19 07:38:47;;;;;;;17.10;5.95;;;;;;;5.51;92.43;101855.25;4995954;28;20083;-78
2021/12/19 07:41:12;;;;;;;17.95;4.68;;;;;;;5.81;89.46;101860.50;4993988;28;20369;-78
2021/12/19 07:43:38;;;;;;;21.57;5.33;;;;;;;5.93;89.22;101858.56;4995076;28;20027;-78
2021/12/19 07:46:03;;;;;;;23.23;7.30;;;;;;;5.59;89.84;101864.25;4995829;28;20285;-79
2021/12/19 07:48:28;;;;;;;19.75;5.80;;;;;;;5.60;90.61;101870.47;4994973;28;20544;-78
2021/12/19 07:50:54;;;;;;;24.08;5.95;;;;;;;5.61;89.15;101863.28;4995304;28;20038;-79
2021/12/19 07:53:19;;;;;;;18.55;7.47;;;;;;;5.48;90.16;101861.72;4996676;28;20477;-78
2021/12/19 07:55:45;;;;;;;13.77;5.60;;;;;;;5.38;90.67;101854.63;4997962;28;20037;-79
2021/12/19 07:58:10;;;;;;;20.37;6.10;;;;;;;5.52;90.44;101854.28;4996920;28;20031;-78
2021/12/19 08:00:36;;;;;;;19.58;5.85;;;;;;;5.82;90.21;101854.16;4995766;28;20308;-78
2021/12/19 08:03:01;;;;;;;19.60;7.00;;;;;;;5.74;90.24;101843.31;4995423;28;20030;-78
2021/12/19 08:05:26;;;;;;;17.15;5.40;;;;;;;5.67;90.13;101846.69;4997523;28;20517;-79
2021/12/19 08:07:59;;;;;;;16.35;6.28;;;;;;;5.34;89.84;101848.75;4997087;28;20031;-81
2021/12/19 08:12:49;;;;;;;21.25;6.57;;;;;;;5.32;91.52;101849.84;4996002;28;20091;-80
2021/12/19 08:15:15;;;;;;;14.83;5.43;;;;;;;5.29;90.98;101834.94;4995972;28;20038;-78
2021/12/19 08:17:41;;;;;;;17.85;6.65;;;;;;;5.15;91.13;101844.16;4994985;28;20030;-78
2021/12/19 08:20:09;;;;;;;14.65;5.35;;;;;;;5.34;92.86;101842.53;4994241;28;20062;-78
2021/12/19 08:22:35;;;;;;;13.68;5.45;;;;;;;5.39;91.64;101841.13;4994589;28;20046;-80
2021/12/19 08:25:00;;;;;;;13.50;5.63;;;;;;;5.23;91.15;101843.47;4995005;28;20052;-79
2021/12/19 08:27:26;;;;;;;16.58;5.88;;;;;;;5.29;91.75;101834.94;4995138;28;20458;-80
2021/12/19 08:29:54;;;;;;;16.55;5.10;;;;;;;5.43;92.08;101836.38;4994777;28;20046;-78
2021/12/19 08:32:20;;;;;;;19.02;5.63;;;;;;;5.76;90.41;101836.00;4994381;28;20030;-80
2021/12/19 08:34:46;;;;;;;17.42;4.68;;;;;;;5.53;90.83;101831.91;4995561;28;20385;-78
2021/12/19 08:37:11;;;;;;;13.05;4.57;;;;;;;5.86;91.67;101828.00;4995284;28;20077;-78
2021/12/19 08:39:38;;;;;;;14.40;5.67;;;;;;;5.52;90.57;101828.38;4993995;28;20022;-79
2021/12/19 08:42:06;;;;;;;16.60;4.70;;;;;;;5.50;90.63;101827.66;4996109;28;20635;-78
2021/12/19 08:44:32;;;;;;;20.23;5.00;;;;;;;5.75;91.77;101831.63;4998251;28;20042;-78
2021/12/19 08:46:57;;;;;;;13.57;5.18;;;;;;;5.81;91.44;101835.59;4998034;28;20389;-79
2021/12/19 08:49:23;;;;;;;14.73;4.93;;;;;;;5.82;90.71;101840.81;4998675;28;20380;-77
2021/12/19 08:51:48;;;;;;;20.92;5.82;;;;;;;5.77;91.97;101821.66;4998569;28;20033;-78
2021/12/19 08:54:14;;;;;;;14.35;4.90;;;;;;;5.42;90.69;101818.63;4998208;28;20121;-79
2021/12/19 08:56:39;;;;;;;17.35;6.20;;;;;;;5.52;92.87;101820.38;4998814;28;20031;-79
2021/12/19 08:59:05;;;;;;;13.73;5.20;;;;;;;5.45;91.98;101823.72;4998510;28;20479;-79
2021/12/19 09:01:32;;;;;;;17.08;5.88;;;;;;;5.49;92.00;101817.97;4955068;28;20062;-79
2021/12/19 09:03:57;;;;;;;14.90;5.32;;;;;;;5.69;91.32;101826.00;5003307;28;20074;-80
2021/12/19 09:06:23;;;;;;;14.68;5.32;;;;;;;5.65;91.17;101822.75;5004929;28;20461;-78
2021/12/19 09:08:48;;;;;;;16.40;5.17;;;;;;;5.41;91.43;101824.97;5005254;28;20040;-80
2021/12/19 09:11:13;;;;;;;17.40;5.73;;;;;;;5.39;92.11;101817.06;5000661;28;20254;-79
2021/12/19 09:13:39;;;;;;;16.20;5.00;;;;;;;5.27;91.44;101826.19;5001345;28;20042;-80
2021/12/19 09:16:04;;;;;;;12.83;4.50;;;;;;;5.26;91.83;101823.66;4998688;28;20042;-79
2021/12/19 09:18:30;;;;;;;11.15;3.78;;;;;;;5.26;91.91;101819.16;4999185;28;20280;-79
2021/12/19 09:20:56;;;;;;;13.77;5.55;;;;;;;5.34;91.15;101813.16;4999049;28;20046;-79
2021/12/19 09:23:22;;;;;;;13.07;4.35;;;;;;;5.27;91.02;101820.84;4998305;28;20539;-79
2021/12/19 09:25:48;;;;;;;12.25;4.00;;;;;;;5.26;90.81;101816.50;4998824;28;20113;-79
2021/12/19 09:28:14;;;;;;;10.00;3.85;;;;;;;5.22;91.31;101823.06;4997888;28;20480;-78
2021/12/19 09:30:40;;;;;;;12.35;3.42;;;;;;;5.19;91.67;101829.56;4997648;28;20472;-78
2021/12/19 09:33:06;;;;;;;13.13;3.05;;;;;;;5.24;91.88;101829.13;4998621;28;20113;-78
2021/12/19 09:35:31;;;;;;;9.37;3.20;;;;;;;5.32;92.69;101820.44;4999192;28;20496;-80
2021/12/19 09:37:57;;;;;;;13.55;4.90;;;;;;;5.19;91.65;101816.22;4999789;28;20612;-83
2021/12/19 09:40:31;;;;;;;13.67;4.83;;;;;;;5.33;92.45;101816.78;4999045;28;20064;-80
2021/12/19 09:43:01;;;;;;;12.75;4.93;;;;;;;5.67;92.98;101812.78;4998527;28;20108;-79
2021/12/19 09:45:27;;;;;;;13.95;5.07;;;;;;;5.36;91.94;101805.84;4998778;28;20038;-79
2021/12/19 09:47:52;;;;;;;16.58;5.68;;;;;;;5.35;92.04;101810.34;4999354;28;20170;-80
2021/12/19 09:50:18;;;;;;;15.73;5.20;;;;;;;5.30;91.96;101814.41;4997993;28;20465;-80
2021/12/19 09:52:46;;;;;;;16.90;5.93;;;;;;;5.48;92.71;101815.41;4998072;28;20440;-80
2021/12/19 09:55:16;;;;;;;18.85;6.28;;;;;;;5.37;92.21;101810.22;4997987;28;20053;-79
2021/12/19 09:57:41;;;;;;;18.75;6.13;;;;;;;5.40;92.85;101810.75;4998497;28;20030;-79
2021/12/19 10:00:07;;;;;;;21.10;5.90;;;;;;;5.49;92.24;101796.56;4997279;28;20125;-80
2021/12/19 10:02:32;;;;;;;18.58;5.60;;;;;;;5.46;92.86;101793.31;4997874;28;20037;-80
2021/12/19 10:05:14;;;;;;;16.90;6.93;;;;;;;5.37;92.65;101794.16;4998813;28;20035;-80
2021/12/19 10:07:47;;;;;;;13.30;4.85;;;;;;;5.27;92.42;101788.78;4999204;28;20526;-81
2021/12/19 10:10:23;;;;;;;14.98;5.53;;;;;;;5.30;93.03;101787.66;4999125;28;20504;-80
2021/12/19 10:12:53;;;;;;;11.82;4.30;;;;;;;5.28;92.51;101785.13;4998351;28;20034;-79
2021/12/19 10:15:39;;;;;;;13.30;4.35;;;;;;;5.32;93.12;101785.72;4998414;28;20487;-81
2021/12/19 10:18:11;;;;;;;16.80;4.88;;;;;;;5.36;92.92;101787.97;4999037;28;20030;-82
2021/12/19 10:20:47;;;;;;;12.43;4.70;;;;;;;5.31;92.83;101774.16;4999785;28;20039;-80
2021/12/19 10:23:23;;;;;;;12.55;3.13;;;;;;;5.34;92.43;101773.06;4999903;28;20039;-80
2021/12/19 10:26:07;;;;;;;8.70;2.65;;;;;;;5.27;93.21;101772.75;4999068;28;20057;-79
2021/12/19 10:28:47;;;;;;;15.40;3.95;;;;;;;5.36;92.80;101765.75;4981508;28;20038;-82
2021/12/19 10:31:13;;;;;;;14.30;3.60;;;;;;;5.23;93.22;101769.50;4998786;28;20069;-81
2021/12/19 10:33:38;;;;;;;14.90;4.25;;;;;;;5.19;93.18;101773.47;4985003;28;20100;-80
2021/12/19 10:36:06;;;;;;;13.85;4.07;;;;;;;5.20;92.77;101761.75;5004201;28;20041;-82
2021/12/19 10:38:36;;;;;;;11.02;3.67;;;;;;;5.24;92.83;101757.00;5003197;28;20023;-80
2021/12/19 10:41:07;;;;;;;12.88;3.08;;;;;;;5.22;92.86;101749.09;5002010;28;20033;-81
2021/12/19 10:43:34;;;;;;;7.82;2.08;;;;;;;5.23;92.52;101742.78;4998578;28;20030;-80
2021/12/19 10:46:02;;;;;;;8.80;2.55;;;;;;;5.27;92.84;101751.38;4999291;28;20105;-79
2021/12/19 10:48:39;;;;;;;5.80;2.42;;;;;;;5.30;93.21;101750.25;4981129;28;20030;-79
2021/12/19 10:51:19;;;;;;;5.35;1.98;;;;;;;5.23;92.18;101733.91;4980727;28;20032;-80
2021/12/19 10:53:57;;;;;;;6.25;2.20;;;;;;;5.28;93.12;101736.19;4998507;28;20121;-82
2021/12/19 10:56:33;;;;;;;5.05;2.20;;;;;;;5.26;92.10;101732.81;4980683;28;20034;-83
2021/12/19 10:58:59;;;;;;;;;;;;;;;5.22;92.51;101729.56;4999864;28;20040;-85
2021/12/19 11:01:39;;;;;;;6.65;2.47;;;;;;;5.25;92.94;101721.25;5001878;28;19968;-80
2021/12/19 11:04:10;;;;;;;7.57;2.33;;;;;;;5.18;93.45;101717.47;4962263;28;20042;-81
2021/12/19 11:06:37;;;;;;;5.47;1.67;;;;;;;5.23;92.80;101721.41;4999443;28;20030;-78
2021/12/19 11:09:16;;;;;;;7.32;1.92;;;;;;;5.19;92.88;101721.84;5001265;28;20037;-79
2021/12/19 11:11:56;;;;;;;7.75;2.70;;;;;;;5.14;93.28;101714.22;5001494;28;20038;-80
2021/12/19 11:14:23;;;;;;;6.68;1.67;;;;;;;5.08;92.54;101712.09;5000127;28;20449;-79
2021/12/19 11:16:52;;;;;;;3.55;1.42;;;;;;;5.03;92.27;101706.31;4997061;28;20054;-78
2021/12/19 11:19:18;;;;;;;2.65;1.00;;;;;;;5.03;91.52;101706.31;4996492;28;20041;-82
2021/12/19 11:21:44;;;;;;;3.17;1.00;;;;;;;5.01;90.10;101712.81;4996288;28;20538;-79
2021/12/19 11:24:12;;;;;;;3.40;0.88;;;;;;;5.10;91.11;101707.47;4996116;28;20117;-79
2021/12/19 11:26:40;;;;;;;1.92;0.57;;;;;;;5.13;89.89;101701.84;4996167;28;20053;-82
2021/12/19 11:29:07;;;;;;;2.67;0.63;;;;;;;5.04;90.11;101699.16;4995829;28;20077;-82
2021/12/19 11:31:33;;;;;;;2.45;0.98;;;;;;;5.05;90.79;101690.16;4995663;28;20030;-81
2021/12/19 11:34:14;;;;;;;1.52;0.52;;;;;;;5.07;90.50;101691.72;4996122;28;20065;-79
2021/12/19 11:36:43;;;;;;;3.00;0.80;;;;;;;5.14;90.16;101690.19;4996185;28;20034;-79
2021/12/19 11:39:09;;;;;;;2.85;0.80;;;;;;;5.11;89.25;101676.25;4995432;28;20037;-80
2021/12/19 11:41:35;;;;;;;;;;;;;;;5.15;89.75;101685.69;4996148;28;20030;-80
2021/12/19 11:44:05;;;;;;;2.47;1.27;;;;;;;5.21;88.85;101687.78;4995889;28;20387;-79
2021/12/19 11:46:52;;;;;;;2.65;1.08;;;;;;;5.20;88.84;101680.75;4995666;28;20406;-80
2021/12/19 11:49:22;;;;;;;1.98;0.47;;;;;;;5.12;89.51;101681.47;4979384;28;20038;-81
2021/12/19 11:51:48;;;;;;;2.33;0.80;;;;;;;5.03;89.86;101678.75;4997610;28;20034;-81
2021/12/19 11:54:16;;;;;;;1.52;0.60;;;;;;;5.02;90.87;101685.94;4978896;28;20033;-79
2021/12/19 11:57:06;;;;;;;3.85;0.95;;;;;;;5.00;90.81;101676.41;4996729;28;20117;-81
2021/12/19 11:59:32;;;;;;;2.60;0.70;;;;;;;4.97;90.43;101674.84;4996325;28;20046;-80
2021/12/19 12:02:20;;;;;;;3.08;1.27;;;;;;;4.99;90.64;101672.88;4995350;28;20030;-79
2021/12/19 12:05:15;;;;;;;3.08;1.00;;;;;;;5.02;91.17;101664.56;4996253;28;20034;-79
2021/12/19 12:08:05;;;;;;;2.75;1.02;;;;;;;4.96;91.21;101661.63;4997166;28;20057;-79
2021/12/19 12:10:58;;;;;;;2.30;0.88;;;;;;;5.15;91.07;101657.13;4995344;28;20030;-78
2021/12/19 12:13:32;;;;;;;2.20;0.88;;;;;;;5.11;91.60;101650.38;4995790;28;20445;-80
2021/12/19 12:16:33;;;;;;;2.08;0.70;;;;;;;5.11;91.88;101650.38;4996054;28;20094;-79
2021/12/19 12:19:03;;;;;;;2.88;0.90;;;;;;;5.06;91.63;101647.28;5001591;28;20023;-82
2021/12/19 12:21:41;;;;;;;3.35;1.02;;;;;;;5.11;91.62;101642.38;5000864;28;20054;-80
2021/12/19 12:24:12;;;;;;;4.68;1.55;;;;;;;5.05;91.92;101634.91;5001053;28;20030;-79
2021/12/19 12:26:57;;;;;;;4.28;1.33;;;;;;;5.10;91.92;101630.00;5002569;28;20037;-81
2021/12/19 12:29:24;;;;;;;2.45;0.98;;;;;;;5.08;90.80;101626.63;5002407;28;20084;-80
2021/12/19 12:31:51;;;;;;;2.58;0.98;;;;;;;5.04;90.92;101617.19;5001354;28;20113;-81
2021/12/19 12:34:18;;;;;;;3.05;0.80;;;;;;;5.15;91.15;101614.41;5001607;28;20030;-80
2021/12/19 12:36:45;;;;;;;3.25;1.38;;;;;;;5.13;89.60;101616.34;4983544;28;20065;-81
2021/12/19 12:39:21;;;;;;;3.17;0.90;;;;;;;5.17;90.05;101612.44;5002678;28;20469;-80
2021/12/19 12:44:18;;;;;;;5.88;1.10;;;;;;;5.18;89.68;101608.78;5000052;28;20026;-81
2021/12/19 12:46:44;;;;;;;2.70;1.00;;;;;;;5.23;89.41;101600.31;4999459;28;20038;-81